Time;durP1;ratioP1;P1;durP2;ratioP2;P2;SDS_P1;SDS_P2;PMS_P1;PMS_P2;Temp;Humidity;BMP_temperature;BMP_pressure;BME280_temperature;BME280_humidity;BME280_pressure;Samples;Min_cycle;Max_cycle;Signal;HPM_P1;HPM_P2
2022/05/03 00:00:15;;;;;;;47.75;20.08;;;;;;;7.21;96.01;102187.59;7377766;19;19910;-79
2022/05/03 00:02:56;;;;;;;55.70;23.13;;;;;;;7.15;96.98;102187.31;7374619;19;20043;-79
2022/05/03 00:05:38;;;;;;;49.78;22.02;;;;;;;7.10;96.45;102179.25;7377437;19;20056;-72
2022/05/03 00:08:15;;;;;;;65.32;24.95;;;;;;;7.10;98.96;102183.56;7375472;19;20003;-72
2022/05/03 00:10:56;;;;;;;59.38;25.13;;;;;;;7.14;99.24;102190.72;7376752;19;20471;-72
2022/05/03 00:13:31;;;;;;;55.30;23.35;;;;;;;7.11;98.53;102180.16;7373220;19;20100;-71
2022/05/03 00:16:03;;;;;;;63.58;25.65;;;;;;;7.14;98.75;102182.91;7372700;19;20014;-72
2022/05/03 00:18:34;;;;;;;59.60;23.40;;;;;;;7.05;97.45;102172.03;7377280;19;20345;-72
2022/05/03 00:21:07;;;;;;;55.15;22.92;;;;;;;7.03;97.42;102176.28;7373426;19;20044;-71
2022/05/03 00:23:38;;;;;;;55.50;24.17;;;;;;;7.01;97.77;102170.09;7373399;19;20015;-72
2022/05/03 00:26:08;;;;;;;61.22;25.20;;;;;;;7.00;99.43;102176.13;7374755;19;20044;-71
2022/05/03 00:28:40;;;;;;;62.45;23.27;;;;;;;6.96;99.54;102176.78;7376264;19;20015;-72
2022/05/03 00:31:12;;;;;;;60.65;25.23;;;;;;;6.92;99.29;102177.44;7376519;19;20007;-71
2022/05/03 00:33:44;;;;;;;57.40;23.65;;;;;;;6.89;99.11;102184.31;7373508;19;20022;-71
2022/05/03 00:36:21;;;;;;;61.55;23.95;;;;;;;6.86;100.00;102178.94;7374541;19;20002;-71
2022/05/03 00:38:51;;;;;;;57.42;24.95;;;;;;;6.85;100.00;102179.75;7370595;19;20019;-72
2022/05/03 00:41:30;;;;;;;57.47;22.45;;;;;;;6.80;99.20;102180.34;7374448;19;20006;-73
2022/05/03 00:44:55;;;;;;;65.47;24.73;;;;;;;6.74;99.54;102177.44;7373940;19;20015;-72
2022/05/03 00:47:04;;;;;;;61.90;25.80;;;;;;;6.68;99.85;102178.03;7376259;19;20014;-71
2022/05/03 00:49:47;;;;;;;66.50;25.42;;;;;;;6.67;100.00;102178.84;7377547;19;20038;-71
2022/05/03 00:52:27;;;;;;;64.53;27.08;;;;;;;6.69;100.00;102179.81;7373321;19;20501;-71
2022/05/03 00:55:19;;;;;;;70.18;26.38;;;;;;;6.68;100.00;102177.13;7375770;19;20015;-79
2022/05/03 00:58:04;;;;;;;65.90;26.95;;;;;;;6.68;100.00;102183.22;7373122;19;20040;-79
2022/05/03 01:00:35;;;;;;;71.38;27.20;;;;;;;6.70;100.00;102178.09;7371899;19;20070;-78
2022/05/03 01:03:13;;;;;;;76.65;27.92;;;;;;;6.69;100.00;102178.91;7371860;19;20516;-72
2022/05/03 01:05:53;;;;;;;71.78;26.40;;;;;;;6.67;100.00;102181.44;7377011;19;20018;-72
2022/05/03 01:08:36;;;;;;;65.70;26.88;;;;;;;6.64;100.00;102181.28;7373481;19;20064;-72
2022/05/03 01:11:23;;;;;;;65.28;24.48;;;;;;;6.61;100.00;102178.53;7371789;19;20014;-72
2022/05/03 01:14:00;;;;;;;61.80;23.70;;;;;;;6.55;100.00;102175.63;7371087;19;20011;-78
2022/05/03 01:16:36;;;;;;;65.18;26.90;;;;;;;6.54;100.00;102173.81;7370887;19;20089;-78
2022/05/03 01:19:25;;;;;;;69.95;25.08;;;;;;;6.53;100.00;102172.94;7373822;19;20017;-71
2022/05/03 01:22:10;;;;;;;68.82;26.23;;;;;;;6.50;100.00;102169.28;7371176;19;20373;-72
2022/05/03 01:25:10;;;;;;;69.03;24.88;;;;;;;6.45;100.00;102174.25;7373545;19;20613;-71
2022/05/03 01:27:58;;;;;;;69.05;23.88;;;;;;;6.43;100.00;102172.38;7372984;19;20052;-72
2022/05/03 01:30:32;;;;;;;58.53;24.55;;;;;;;6.42;100.00;102173.19;7375898;19;20014;-72
2022/05/03 01:33:09;;;;;;;65.03;26.38;;;;;;;6.39;100.00;102173.94;7371247;19;20638;-72
2022/05/03 01:35:42;;;;;;;71.50;25.85;;;;;;;6.35;100.00;102172.00;7373226;19;20031;-78
2022/05/03 01:38:27;;;;;;;66.53;24.25;;;;;;;6.33;100.00;102176.22;7375046;19;20428;-77
2022/05/03 01:41:27;;;;;;;68.07;24.63;;;;;;;6.30;100.00;102169.97;7373640;19;20014;-78
2022/05/03 01:44:22;;;;;;;66.53;26.80;;;;;;;6.29;100.00;102162.97;7370302;19;20011;-75
2022/05/03 01:47:01;;;;;;;71.70;26.63;;;;;;;6.27;100.00;102162.00;7372677;19;20015;-78
2022/05/03 01:53:02;;;;;;;72.88;26.75;;;;;;;6.22;100.00;102162.69;7367136;19;20339;-78
2022/05/03 01:55:55;;;;;;;63.25;24.73;;;;;;;6.20;100.00;102158.19;7371022;19;20419;-78
2022/05/03 01:58:35;;;;;;;78.25;26.58;;;;;;;6.15;100.00;102152.75;7369175;19;20015;-78
2022/05/03 02:01:06;;;;;;;74.35;25.92;;;;;;;6.14;100.00;102158.78;7371901;19;20476;-78
2022/05/03 02:03:48;;;;;;;73.07;25.52;;;;;;;6.09;100.00;102162.84;7371826;19;20011;-71
2022/05/03 02:06:24;;;;;;;67.43;23.75;;;;;;;6.09;100.00;102165.47;7370767;19;20019;-71
2022/05/03 02:09:02;;;;;;;71.13;27.00;;;;;;;6.09;100.00;102157.66;7370254;19;20696;-70
2022/05/03 02:11:45;;;;;;;77.15;28.40;;;;;;;6.05;100.00;102153.09;7374404;19;20009;-70
2022/05/03 02:17:18;;;;;;;70.38;27.08;;;;;;;5.99;100.00;102160.59;7384812;19;20027;-70
2022/05/03 02:20:16;;;;;;;74.85;26.27;;;;;;;5.99;100.00;102157.97;7382614;19;20015;-78
2022/05/03 02:23:23;;;;;;;66.45;25.02;;;;;;;5.97;100.00;102151.78;7383479;19;20018;-77
2022/05/03 02:26:16;;;;;;;73.63;26.92;;;;;;;5.95;100.00;102156.03;7382115;19;20011;-78
2022/05/03 02:28:51;;;;;;;74.00;27.00;;;;;;;5.92;100.00;102153.25;7385067;19;20011;-71
2022/05/03 02:31:30;;;;;;;71.22;26.42;;;;;;;5.88;100.00;102161.69;7383610;19;20295;-71
2022/05/03 02:34:09;;;;;;;63.40;24.95;;;;;;;5.85;100.00;102158.91;7380050;19;20021;-71
2022/05/03 02:36:45;;;;;;;72.43;26.95;;;;;;;5.86;100.00;102150.28;7382977;19;20015;-71
2022/05/03 02:39:22;;;;;;;66.85;25.48;;;;;;;5.86;100.00;102151.19;7382594;19;20015;-71
2022/05/03 02:41:57;;;;;;;67.50;27.27;;;;;;;5.85;100.00;102159.81;7380741;19;20018;-78
2022/05/03 02:44:30;;;;;;;69.18;27.33;;;;;;;5.90;100.00;102161.00;7380129;19;20013;-78
2022/05/03 02:47:06;;;;;;;77.35;28.33;;;;;;;5.93;100.00;102159.38;7381079;19;20112;-77
2022/05/03 02:49:56;;;;;;;79.05;26.77;;;;;;;5.93;100.00;102159.38;7383278;19;20010;-70
2022/05/03 02:52:38;;;;;;;73.07;29.40;;;;;;;5.90;100.00;102161.00;7379083;19;20010;-70
2022/05/03 02:55:16;;;;;;;68.13;27.02;;;;;;;5.89;100.00;102154.00;7381369;19;20040;-71
2022/05/03 02:57:55;;;;;;;76.00;28.35;;;;;;;5.87;100.00;102152.09;7381915;19;20007;-71
2022/05/03 03:03:43;;;;;;;66.97;26.50;;;;;;;5.90;100.00;102152.28;7378602;19;20010;-71
2022/05/03 03:06:16;;;;;;;;;;;;;;;5.89;100.00;102154.00;7379459;19;20010;-78
2022/05/03 03:08:54;;;;;;;56.83;23.23;;;;;;;5.86;100.00;102151.19;7382705;19;19924;-71
2022/05/03 03:11:41;;;;;;;55.47;22.60;;;;;;;5.82;100.00;102145.75;7383859;19;20014;-71
2022/05/03 03:14:22;;;;;;;60.38;25.23;;;;;;;5.76;100.00;102151.50;7380581;19;20014;-71
2022/05/03 03:16:56;;;;;;;56.88;23.17;;;;;;;5.76;100.00;102159.31;7383223;19;20040;-71
2022/05/03 03:19:50;;;;;;;49.40;22.27;;;;;;;5.73;100.00;102155.66;7380990;19;20017;-71
2022/05/03 03:22:22;;;;;;;;;;;;;;;5.72;100.00;102154.75;7374720;19;20006;-77
2022/05/03 03:24:58;;;;;;;49.67;22.17;;;;;;;5.72;100.00;102153.88;7381960;19;19914;-80
2022/05/03 03:27:31;;;;;;;51.88;23.10;;;;;;;5.72;100.00;102143.47;7381907;19;20523;-76
2022/05/03 03:30:03;;;;;;;46.42;23.15;;;;;;;5.77;100.00;102149.81;7381525;19;20043;-78
2022/05/03 03:32:33;;;;;;;47.22;21.98;;;;;;;5.75;100.00;102141.91;7384774;19;20002;-79
2022/05/03 03:35:04;;;;;;;49.58;21.75;;;;;;;5.78;100.00;102149.88;7383996;19;20018;-79
2022/05/03 03:37:37;;;;;;;48.03;21.52;;;;;;;5.81;100.00;102149.16;7384773;19;20048;-79
2022/05/03 03:40:13;;;;;;;43.95;20.70;;;;;;;5.77;100.00;102144.59;7386133;19;20010;-79
2022/05/03 03:42:45;;;;;;;46.97;20.42;;;;;;;5.79;100.00;102142.97;7384874;19;20024;-79
2022/05/03 03:45:25;;;;;;;47.75;22.30;;;;;;;5.82;100.00;102140.53;7383276;19;20018;-80
2022/05/03 03:47:57;;;;;;;42.92;20.80;;;;;;;5.85;100.00;102145.91;7383456;19;20007;-71
2022/05/03 03:50:28;;;;;;;45.60;20.88;;;;;;;5.85;100.00;102145.91;7384316;19;20989;-78
2022/05/03 03:52:59;;;;;;;46.53;21.88;;;;;;;5.88;100.00;102146.06;7379253;19;20010;-79
2022/05/03 03:55:32;;;;;;;45.45;20.08;;;;;;;5.87;100.00;102141.66;7383552;19;20023;-78
2022/05/03 03:58:02;;;;;;;42.95;20.17;;;;;;;5.93;100.00;102151.56;7383549;19;20027;-78
2022/05/03 04:00:32;;;;;;;43.58;20.90;;;;;;;5.93;100.00;102144.63;7385226;19;20021;-79
2022/05/03 04:03:04;;;;;;;41.10;19.98;;;;;;;5.96;100.00;102144.78;7381685;19;20015;-72
2022/05/03 04:05:38;;;;;;;46.60;23.25;;;;;;;5.99;100.00;102144.97;7383112;19;20688;-72
2022/05/03 04:08:12;;;;;;;41.33;19.10;;;;;;;5.99;100.00;102150.16;7383776;19;20011;-78
2022/05/03 04:10:45;;;;;;;39.20;19.40;;;;;;;5.98;100.00;102145.78;7382403;19;20419;-79
2022/05/03 04:13:17;;;;;;;40.00;19.17;;;;;;;5.96;100.00;102150.00;7383340;19;20039;-72
2022/05/03 04:15:48;;;;;;;38.25;18.80;;;;;;;5.94;100.00;102146.44;7375425;19;20035;-72
2022/05/03 04:18:19;;;;;;;35.92;17.92;;;;;;;5.93;100.00;102144.63;7377453;19;20478;-72
2022/05/03 04:20:51;;;;;;;42.80;18.65;;;;;;;5.90;100.00;102139.25;7377299;19;20479;-72
2022/05/03 04:23:25;;;;;;;39.53;18.75;;;;;;;5.88;100.00;102135.66;7378394;19;20011;-77
2022/05/03 04:26:02;;;;;;;40.97;20.10;;;;;;;5.92;100.00;102147.16;7380426;19;20014;-71
2022/05/03 04:28:32;;;;;;;36.42;19.17;;;;;;;5.90;100.00;102145.38;7379913;19;20017;-72
2022/05/03 04:31:02;;;;;;;49.78;25.20;;;;;;;5.94;100.00;102141.22;7378889;19;20138;-79
2022/05/03 04:33:32;;;;;;;40.60;20.73;;;;;;;5.92;100.00;102142.84;7380657;19;20007;-78
2022/05/03 04:36:01;;;;;;;39.35;19.73;;;;;;;5.92;100.00;102153.25;7376056;19;20034;-78
2022/05/03 04:38:31;;;;;;;37.88;18.50;;;;;;;5.94;100.00;102145.53;7379432;19;20047;-72
2022/05/03 04:41:07;;;;;;;43.35;21.08;;;;;;;5.98;100.00;102150.97;7374768;19;20010;-72
2022/05/03 04:43:37;;;;;;;40.85;20.08;;;;;;;6.03;100.00;102146.00;7379809;19;20014;-79
2022/05/03 04:46:07;;;;;;;43.35;21.33;;;;;;;6.06;100.00;102148.78;7376074;19;20051;-79
2022/05/03 04:48:37;;;;;;;43.40;20.83;;;;;;;6.08;100.00;102150.66;7381209;19;20090;-78
2022/05/03 04:51:07;;;;;;;41.42;20.67;;;;;;;6.11;100.00;102145.59;7381328;19;20546;-78
2022/05/03 04:53:37;;;;;;;45.88;21.08;;;;;;;6.22;100.00;102148.75;7378521;19;20900;-78
2022/05/03 04:56:20;;;;;;;42.28;19.77;;;;;;;6.28;100.00;102142.94;7376981;19;20567;-78
2022/05/03 04:58:55;;;;;;;40.97;21.42;;;;;;;6.37;100.00;102144.31;7384295;19;20014;-78
2022/05/03 05:01:27;;;;;;;48.30;23.67;;;;;;;6.47;100.00;102158.69;7377724;19;20014;-78
2022/05/03 05:03:57;;;;;;;46.20;20.40;;;;;;;6.56;100.00;102154.84;7381980;19;20017;-78
2022/05/03 05:06:27;;;;;;;47.97;22.60;;;;;;;6.70;100.00;102149.41;7382226;19;20027;-73
2022/05/03 05:08:57;;;;;;;45.30;21.33;;;;;;;6.81;100.00;102150.84;7379843;19;20046;-72
2022/05/03 05:11:29;;;;;;;43.63;22.02;;;;;;;6.97;100.00;102158.59;7381235;19;20845;-73
2022/05/03 05:13:59;;;;;;;52.13;23.33;;;;;;;7.16;100.00;102155.16;7376891;19;20013;-73
2022/05/03 05:16:29;;;;;;;47.97;23.00;;;;;;;7.38;100.00;102152.72;7377427;19;20011;-72
2022/05/03 05:18:59;;;;;;;47.97;23.35;;;;;;;7.60;100.00;102161.56;7386478;19;20057;-72
2022/05/03 05:21:31;;;;;;;45.75;23.17;;;;;;;7.82;100.00;102153.88;7384231;19;20022;-72
2022/05/03 05:24:03;;;;;;;;;;;;;;;8.06;100.00;102154.97;7382168;19;20014;-73
2022/05/03 05:26:35;;;;;;;43.70;20.67;;;;;;;8.28;100.00;102161.16;7376040;19;20277;-73
2022/05/03 05:29:05;;;;;;;48.42;21.77;;;;;;;8.54;100.00;102160.56;7378263;19;20078;-73
2022/05/03 05:31:39;;;;;;;52.33;24.02;;;;;;;8.77;100.00;102159.81;7374849;19;20313;-73
2022/05/03 05:34:10;;;;;;;55.75;25.80;;;;;;;9.04;100.00;102165.28;7376484;19;20029;-72
2022/05/03 05:36:40;;;;;;;44.70;21.75;;;;;;;9.24;100.00;102149.47;7373025;19;20379;-73
2022/05/03 05:39:10;;;;;;;45.25;22.20;;;;;;;9.21;100.00;102144.13;7376976;19;20003;-73
2022/05/03 05:41:43;;;;;;;48.55;22.88;;;;;;;9.16;99.56;102151.78;7379409;19;20032;-81
2022/05/03 05:44:13;;;;;;;46.22;21.55;;;;;;;9.17;99.98;102153.56;7377187;19;20029;-80
2022/05/03 05:46:43;;;;;;;47.50;23.48;;;;;;;9.17;100.00;102150.97;7382497;19;20013;-80
2022/05/03 05:49:13;;;;;;;47.35;23.50;;;;;;;9.20;100.00;102155.41;7386968;19;20007;-80
2022/05/03 05:51:45;;;;;;;47.83;24.70;;;;;;;9.28;100.00;102154.00;7386521;19;20014;-80
2022/05/03 05:54:12;;;;;;;48.13;25.13;;;;;;;9.31;100.00;102164.59;7382621;19;20021;-80
2022/05/03 05:56:45;;;;;;;51.25;25.88;;;;;;;9.35;99.56;102159.53;7384893;19;20018;-79
2022/05/03 05:59:19;;;;;;;49.88;24.90;;;;;;;9.42;99.74;102156.28;7390002;19;20022;-80
2022/05/03 06:01:51;;;;;;;46.83;24.35;;;;;;;9.42;99.49;102164.16;7388794;19;20018;-79
2022/05/03 06:04:22;;;;;;;50.72;25.42;;;;;;;9.49;99.84;102155.69;7389785;19;20065;-80
2022/05/03 06:06:52;;;;;;;57.30;26.20;;;;;;;9.61;99.17;102164.84;7390578;19;20043;-80
2022/05/03 06:09:22;;;;;;;47.05;26.17;;;;;;;9.68;99.65;102154.66;7389863;19;20017;-81
2022/05/03 06:11:55;;;;;;;53.75;27.88;;;;;;;9.75;99.14;102161.03;7390228;19;20015;-73
2022/05/03 06:14:26;;;;;;;56.75;27.30;;;;;;;9.82;99.21;102163.03;7385243;19;20011;-73
2022/05/03 06:16:57;;;;;;;50.70;27.00;;;;;;;9.88;99.10;102163.28;7388362;19;20015;-81
2022/05/03 06:19:27;;;;;;;53.10;27.80;;;;;;;9.83;99.78;102163.09;7392083;19;20014;-81
2022/05/03 06:21:57;;;;;;;60.92;28.95;;;;;;;9.94;99.25;102163.50;7391984;19;20023;-79
2022/05/03 06:24:27;;;;;;;54.65;27.52;;;;;;;9.94;99.39;102171.38;7391780;19;20010;-79
2022/05/03 06:26:59;;;;;;;53.83;27.65;;;;;;;10.03;99.73;102168.19;7392255;19;20007;-80
2022/05/03 06:29:29;;;;;;;57.55;27.92;;;;;;;10.11;99.45;102167.63;7391130;19;20015;-80
2022/05/03 06:31:59;;;;;;;56.85;28.67;;;;;;;10.19;99.73;102169.63;7390171;19;20006;-79
2022/05/03 06:34:29;;;;;;;54.88;28.75;;;;;;;10.36;99.00;102169.44;7388620;19;20006;-81
2022/05/03 06:36:59;;;;;;;56.03;27.33;;;;;;;10.41;98.96;102174.81;7386429;19;20018;-79
2022/05/03 06:39:29;;;;;;;56.17;27.77;;;;;;;10.37;99.00;102171.22;7386549;19;20018;-80
2022/05/03 06:42:02;;;;;;;46.17;24.35;;;;;;;10.42;99.29;102177.47;7386624;19;20565;-79
2022/05/03 06:44:31;;;;;;;48.30;25.45;;;;;;;10.35;99.50;102172.00;7386883;19;20605;-79
2022/05/03 06:47:01;;;;;;;46.05;24.55;;;;;;;10.51;99.20;102171.66;7381930;19;20308;-73
2022/05/03 06:49:32;;;;;;;50.33;25.05;;;;;;;10.59;99.29;102164.94;7380766;19;20018;-73
2022/05/03 06:52:02;;;;;;;52.92;26.23;;;;;;;10.81;98.26;102177.97;7383286;19;20014;-80
2022/05/03 06:54:31;;;;;;;48.50;25.88;;;;;;;10.76;98.49;102179.53;7385903;19;20040;-80
2022/05/03 06:57:04;;;;;;;52.65;26.00;;;;;;;10.80;98.40;102181.44;7382137;19;20018;-74
2022/05/03 06:59:34;;;;;;;55.63;27.05;;;;;;;10.80;98.02;102178.81;7380323;19;20010;-80
2022/05/03 07:02:07;;;;;;;50.90;26.67;;;;;;;11.01;98.28;102181.25;7383105;19;21878;-80
2022/05/03 07:04:37;;;;;;;52.47;28.83;;;;;;;11.25;96.92;102186.41;7383545;19;20006;-81
2022/05/03 07:07:07;;;;;;;53.17;27.55;;;;;;;11.50;96.22;102176.63;7379527;19;20007;-79
2022/05/03 07:09:37;;;;;;;47.70;25.63;;;;;;;11.53;94.94;102177.63;7373722;19;20003;-73
2022/05/03 07:12:12;;;;;;;47.08;25.33;;;;;;;11.41;94.46;102178.16;7376858;19;20044;-75
2022/05/03 07:24:24;;;;;;;;;;;;;;;;;;;;;
2022/05/03 07:27:43;;;;;;;44.83;23.65;;;;;;;11.52;94.22;102185.44;7372106;19;20333;-76
2022/05/03 07:33:40;;;;;;;47.78;26.02;;;;;;;11.71;93.04;102182.53;7381563;19;20011;-83
2022/05/03 07:36:10;;;;;;;46.30;24.60;;;;;;;11.66;92.67;102189.38;7394996;19;20014;-87
2022/05/03 07:39:23;;;;;;;43.85;23.13;;;;;;;11.97;92.71;102189.50;7392364;19;20010;-74
2022/05/03 07:41:53;;;;;;;44.78;23.20;;;;;;;12.13;90.30;102192.56;7396584;19;21407;-86
2022/05/03 07:44:23;;;;;;;42.58;22.00;;;;;;;12.20;90.00;102189.25;7396956;19;20014;-85
2022/05/03 07:46:57;;;;;;;37.58;21.08;;;;;;;12.15;90.11;102202.28;7395692;19;20018;-84
2022/05/03 07:49:26;;;;;;;;;;;;;;;12.02;89.29;102195.78;7399198;19;20014;-84
2022/05/03 07:51:57;;;;;;;41.22;22.13;;;;;;;12.17;89.56;102194.44;7395917;19;19914;-85
2022/05/03 07:54:27;;;;;;;38.38;22.42;;;;;;;12.18;89.15;102185.69;7396423;19;20043;-87
2022/05/03 07:56:57;;;;;;;40.85;21.17;;;;;;;12.35;88.30;102187.06;7398049;19;20014;-87
2022/05/03 07:59:27;;;;;;;38.10;22.40;;;;;;;12.70;87.55;102172.16;7395234;19;20794;-87
2022/05/03 08:02:02;;;;;;;39.83;19.48;;;;;;;12.60;85.32;102186.81;7396308;19;20052;-87
2022/05/03 08:04:35;;;;;;;40.53;21.63;;;;;;;13.02;85.58;102187.03;7393335;19;20065;-86
2022/05/03 08:07:16;;;;;;;;;;;;;;;12.90;85.19;102186.72;7388668;19;20010;-76
2022/05/03 08:10:02;;;;;;;37.65;19.25;;;;;;;12.99;84.42;102181.69;7374480;19;19922;-76
2022/05/03 08:12:51;;;;;;;37.25;18.67;;;;;;;12.92;84.40;102181.50;7379240;19;20020;-77
2022/05/03 08:18:23;;;;;;;35.97;18.73;;;;;;;12.97;84.41;102196.56;7385422;19;20122;-85
2022/05/03 08:20:54;;;;;;;33.17;18.02;;;;;;;12.92;83.31;102197.28;7391783;19;20602;-85
2022/05/03 08:23:26;;;;;;;31.88;17.67;;;;;;;13.09;84.08;102193.34;7392653;19;20017;-86
2022/05/03 08:26:01;;;;;;;34.20;18.58;;;;;;;13.18;83.15;102192.72;7393366;19;20015;-86
2022/05/03 08:28:31;;;;;;;38.35;19.98;;;;;;;12.80;84.30;102200.50;7394694;19;20037;-87
2022/05/03 08:31:02;;;;;;;33.63;18.70;;;;;;;12.99;84.72;102188.69;7395051;19;20054;-88
2022/05/03 08:33:35;;;;;;;36.83;20.58;;;;;;;13.23;84.71;102198.97;7396830;19;20036;-88
2022/05/03 08:36:07;;;;;;;42.17;20.57;;;;;;;13.25;83.84;102199.91;7396782;19;20006;-88
2022/05/03 08:44:22;;;;;;;39.53;19.75;;;;;;;13.71;82.08;102196.56;7388264;19;20480;-78
2022/05/03 08:46:59;;;;;;;37.95;19.67;;;;;;;13.40;81.47;102198.53;7386672;19;20039;-76
2022/05/03 08:49:42;;;;;;;40.03;21.02;;;;;;;13.33;83.29;102203.63;7383290;19;20010;-77
2022/05/03 08:52:19;;;;;;;40.28;20.67;;;;;;;13.48;82.50;102197.81;7381741;19;20024;-77
2022/05/03 08:54:54;;;;;;;42.50;21.58;;;;;;;13.62;81.69;102198.97;7382417;19;20062;-76
2022/05/03 08:57:30;;;;;;;40.70;21.05;;;;;;;14.15;81.12;102197.50;7380106;19;20014;-86
2022/05/03 09:00:00;;;;;;;45.70;22.50;;;;;;;13.15;83.11;102217.19;7389755;19;20002;-86
2022/05/03 09:02:37;;;;;;;44.78;22.98;;;;;;;13.37;82.55;102209.00;7388277;19;20002;-88
2022/05/03 09:05:10;;;;;;;46.95;22.73;;;;;;;13.07;83.13;102221.38;7386683;19;20569;-86
2022/05/03 09:08:01;;;;;;;45.67;23.35;;;;;;;13.38;82.37;102208.13;7383066;19;20011;-75
2022/05/03 09:10:39;;;;;;;49.55;23.95;;;;;;;13.68;81.21;102214.94;7382501;19;20313;-76
2022/05/03 09:13:30;;;;;;;49.28;24.23;;;;;;;14.18;79.43;102212.50;7384836;19;20006;-87
2022/05/03 09:16:12;;;;;;;49.35;22.77;;;;;;;13.23;81.91;102217.41;7389238;19;20636;-85
2022/05/03 09:18:44;;;;;;;50.90;25.33;;;;;;;13.62;81.59;102209.53;7377633;19;20018;-76
2022/05/03 09:38:19;;;;;;;63.88;27.08;;;;;;;14.56;77.84;102202.72;7365689;19;20812;-76
2022/05/03 09:44:57;;;;;;;51.33;22.30;;;;;;;15.02;75.07;102209.66;7369652;19;20711;-74
2022/05/03 09:47:34;;;;;;;52.50;21.42;;;;;;;15.31;73.67;102204.84;7369514;19;20267;-76
2022/05/03 09:50:07;;;;;;;43.10;20.25;;;;;;;15.40;72.63;102199.72;7371466;19;20014;-76
2022/05/03 09:52:40;;;;;;;49.70;23.15;;;;;;;15.09;73.52;102214.19;7368341;19;20014;-75
2022/05/03 09:55:13;;;;;;;;;;;;;;;15.36;73.63;102209.34;7372124;19;20015;-74
2022/05/03 09:57:45;;;;;;;47.63;20.33;;;;;;;14.49;74.94;102214.91;7369940;19;19953;-76
2022/05/03 10:00:18;;;;;;;48.13;20.77;;;;;;;14.51;74.85;102214.94;7372519;19;20022;-80
2022/05/03 10:02:49;;;;;;;43.70;18.13;;;;;;;14.51;74.35;102213.19;7367331;19;20014;-79
2022/05/03 10:05:21;;;;;;;43.08;19.13;;;;;;;15.19;71.40;102212.59;7373371;19;20354;-79
2022/05/03 10:07:52;;;;;;;47.75;20.15;;;;;;;15.09;72.23;102210.66;7366861;19;20021;-79
2022/05/03 10:10:26;;;;;;;45.78;19.92;;;;;;;15.50;69.91;102206.03;7373373;19;20011;-80
2022/05/03 10:13:00;;;;;;;46.53;18.38;;;;;;;15.47;69.84;102208.63;7369775;19;20015;-76
2022/05/03 10:21:21;;;;;;;42.40;19.27;;;;;;;16.28;67.55;102202.66;7376320;19;20033;-76
2022/05/03 10:24:08;;;;;;;48.00;22.52;;;;;;;15.34;70.37;102207.56;7376024;19;20021;-76
2022/05/03 10:27:09;;;;;;;49.53;21.65;;;;;;;15.74;70.07;102198.44;7376932;19;20035;-76
2022/05/03 10:29:42;;;;;;;46.97;20.48;;;;;;;15.63;68.94;102211.50;7377619;19;20345;-76
2022/05/03 10:32:17;;;;;;;43.05;18.67;;;;;;;15.60;68.47;102206.19;7378785;19;20010;-76
2022/05/03 10:34:53;;;;;;;38.13;17.30;;;;;;;15.37;67.96;102200.56;7379705;19;20022;-75
2022/05/03 10:37:59;;;;;;;49.50;20.85;;;;;;;15.45;69.67;102199.78;7387329;19;20089;-80
2022/05/03 10:40:34;;;;;;;45.17;20.05;;;;;;;15.10;71.48;102200.13;7389800;19;20017;-79
2022/05/03 10:43:12;;;;;;;43.20;20.20;;;;;;;15.21;71.49;102206.47;7389984;19;20135;-79
2022/05/03 10:45:56;;;;;;;50.05;20.27;;;;;;;14.70;72.15;102199.44;7389737;19;20015;-78
2022/05/03 10:48:28;;;;;;;39.03;20.08;;;;;;;14.61;72.27;102208.94;7387098;19;20315;-78
2022/05/03 10:51:01;;;;;;;42.97;19.17;;;;;;;14.83;72.22;102199.66;7388518;19;20070;-78
2022/05/03 10:53:32;;;;;;;42.72;18.95;;;;;;;14.82;72.37;102197.88;7380577;19;20007;-78
2022/05/03 10:56:24;;;;;;;45.97;19.40;;;;;;;14.70;73.91;102195.91;7382854;19;20014;-80
2022/05/03 10:59:20;;;;;;;42.42;19.20;;;;;;;14.91;73.78;102191.00;7382662;19;20022;-79
2022/05/03 11:02:12;;;;;;;45.42;21.38;;;;;;;14.46;75.08;102193.75;7382882;19;20050;-78
2022/05/03 11:05:14;;;;;;;46.47;19.88;;;;;;;14.44;75.62;102192.81;7381531;19;20010;-78
2022/05/03 11:08:10;;;;;;;51.67;21.48;;;;;;;14.53;76.37;102185.06;7375547;19;20011;-80
2022/05/03 11:10:44;;;;;;;51.33;21.17;;;;;;;14.73;74.37;102186.28;7378542;19;20630;-79
2022/05/03 11:13:44;;;;;;;48.47;20.38;;;;;;;14.80;73.33;102184.66;7379747;19;20042;-76
2022/05/03 11:16:34;;;;;;;45.28;20.75;;;;;;;15.41;71.64;102182.09;7379424;19;20007;-79
2022/05/03 11:19:12;;;;;;;46.42;19.88;;;;;;;15.78;70.75;102173.81;7374995;19;20011;-76
2022/05/03 11:21:43;;;;;;;47.08;19.27;;;;;;;16.08;67.97;102172.41;7378243;19;20056;-75
2022/05/03 11:24:23;;;;;;;39.67;18.33;;;;;;;15.85;68.04;102170.38;7373759;19;20296;-75
2022/05/03 11:26:55;;;;;;;43.55;18.98;;;;;;;15.74;68.57;102166.69;7375405;19;20082;-77
2022/05/03 11:29:30;;;;;;;44.35;19.27;;;;;;;15.84;68.62;102167.72;7377010;19;20375;-74
2022/05/03 11:32:04;;;;;;;37.38;17.00;;;;;;;15.62;69.16;102159.50;7374528;19;20018;-75
2022/05/03 11:34:38;;;;;;;40.03;17.33;;;;;;;15.37;70.04;102155.63;7383157;19;20045;-80
2022/05/03 11:37:10;;;;;;;38.70;16.70;;;;;;;15.61;69.03;102156.81;7381399;19;20386;-75
2022/05/03 11:39:40;;;;;;;34.53;16.38;;;;;;;16.20;68.41;102156.69;7383695;19;20010;-75
2022/05/03 11:42:13;;;;;;;36.17;16.33;;;;;;;15.85;67.94;102146.56;7390244;19;20006;-76
2022/05/03 11:44:45;;;;;;;28.23;14.00;;;;;;;16.26;66.45;102156.75;7393886;19;20495;-76
2022/05/03 11:47:19;;;;;;;32.72;14.32;;;;;;;15.80;69.20;102156.19;7391229;19;20015;-76
2022/05/03 11:49:53;;;;;;;30.02;13.75;;;;;;;15.95;66.07;102151.09;7390114;19;20022;-80
2022/05/03 11:57:59;;;;;;;24.23;11.30;;;;;;;15.31;68.41;102141.41;7378665;19;20021;-76
2022/05/03 12:00:32;;;;;;;24.40;12.38;;;;;;;14.99;71.53;102151.50;7379996;19;20117;-75
2022/05/03 12:03:05;;;;;;;23.48;11.95;;;;;;;14.90;71.86;102148.72;7378645;19;20018;-75
2022/05/03 12:05:40;;;;;;;25.40;13.05;;;;;;;14.84;72.92;102148.59;7381576;19;20018;-76
2022/05/03 12:08:26;;;;;;;38.42;16.30;;;;;;;14.19;77.01;102149.19;7379478;19;20014;-76
2022/05/03 12:10:56;;;;;;;40.03;18.92;;;;;;;14.31;76.69;102148.53;7382276;19;20011;-77
2022/05/03 12:13:33;;;;;;;43.50;18.90;;;;;;;14.56;76.14;102148.13;7379963;19;20018;-76
2022/05/03 12:16:15;;;;;;;39.55;18.65;;;;;;;14.47;76.57;102148.00;7382151;19;20098;-76
2022/05/03 12:18:53;;;;;;;37.47;16.60;;;;;;;13.77;79.56;102150.97;7375346;19;20010;-77
2022/05/03 12:21:28;;;;;;;37.28;17.70;;;;;;;13.57;81.99;102147.91;7377428;19;20069;-75
2022/05/03 12:24:04;;;;;;;35.15;16.77;;;;;;;13.45;83.18;102152.94;7376004;19;20476;-75
2022/05/03 12:26:41;;;;;;;44.40;17.67;;;;;;;13.17;84.00;102154.94;7377832;19;20014;-77
2022/05/03 12:29:12;;;;;;;38.10;17.02;;;;;;;12.83;85.86;102157.56;7372932;19;20022;-76
2022/05/03 12:31:45;;;;;;;35.20;16.10;;;;;;;12.83;86.42;102154.94;7379580;19;20049;-80
2022/05/03 12:34:24;;;;;;;36.80;17.10;;;;;;;13.09;85.34;102156.47;7383750;19;20010;-81
2022/05/03 12:37:09;;;;;;;32.13;16.77;;;;;;;13.43;83.38;102152.00;7380506;19;20542;-80
2022/05/03 12:39:40;;;;;;;38.42;17.58;;;;;;;13.25;84.32;102158.66;7383675;19;20023;-80
2022/05/03 12:42:17;;;;;;;33.25;16.75;;;;;;;13.33;84.43;102153.56;7384348;19;20011;-80
2022/05/03 12:44:55;;;;;;;28.02;14.43;;;;;;;13.46;83.15;102152.97;7378235;19;20013;-80
2022/05/03 12:47:26;;;;;;;30.83;15.48;;;;;;;13.66;82.21;102148.09;7383029;19;20010;-80
2022/05/03 12:49:59;;;;;;;31.10;15.00;;;;;;;13.94;81.01;102158.38;7381448;19;20015;-80
2022/05/03 12:52:30;;;;;;;30.00;14.77;;;;;;;14.20;78.81;102155.38;7376230;19;20015;-81
2022/05/03 12:55:00;;;;;;;27.80;14.48;;;;;;;14.10;79.59;102148.13;7378498;19;20014;-81
2022/05/03 13:00:14;;;;;;;25.83;13.93;;;;;;;14.21;78.23;102147.47;7377518;19;20057;-81